sensor_id;sensor_type;location;lat;lon;timestamp;P1;durP1;ratioP1;P2;durP2;ratioP2
15831;SDS011;8016;49.928;9.372;2022-07-30T00:02:06;13.43;;;8.83;;
15831;SDS011;8016;49.928;9.372;2022-07-30T00:04:32;27.07;;;8.37;;
15831;SDS011;8016;49.928;9.372;2022-07-30T00:06:58;20.40;;;8.70;;
15831;SDS011;8016;49.928;9.372;2022-07-30T00:09:24;18.23;;;8.53;;
15831;SDS011;8016;49.928;9.372;2022-07-30T00:11:50;9.20;;;8.30;;
15831;SDS011;8016;49.928;9.372;2022-07-30T00:14:16;13.33;;;9.47;;
15831;SDS011;8016;49.928;9.372;2022-07-30T00:16:43;13.20;;;9.73;;
15831;SDS011;8016;49.928;9.372;2022-07-30T00:19:09;9.87;;;8.87;;
15831;SDS011;8016;49.928;9.372;2022-07-30T00:21:35;13.20;;;8.03;;
15831;SDS011;8016;49.928;9.372;2022-07-30T00:24:01;16.07;;;7.60;;
15831;SDS011;8016;49.928;9.372;2022-07-30T00:26:27;8.63;;;7.73;;
15831;SDS011;8016;49.928;9.372;2022-07-30T00:28:53;8.60;;;7.80;;
15831;SDS011;8016;49.928;9.372;2022-07-30T00:31:19;9.50;;;7.90;;
15831;SDS011;8016;49.928;9.372;2022-07-30T00:33:45;7.83;;;7.00;;
15831;SDS011;8016;49.928;9.372;2022-07-30T00:36:11;12.97;;;7.13;;
15831;SDS011;8016;49.928;9.372;2022-07-30T00:38:37;14.97;;;7.10;;
15831;SDS011;8016;49.928;9.372;2022-07-30T00:41:03;10.53;;;7.23;;
15831;SDS011;8016;49.928;9.372;2022-07-30T00:43:29;15.50;;;7.10;;
15831;SDS011;8016;49.928;9.372;2022-07-30T00:45:55;10.33;;;7.60;;
15831;SDS011;8016;49.928;9.372;2022-07-30T00:48:21;8.77;;;7.90;;
15831;SDS011;8016;49.928;9.372;2022-07-30T00:50:47;10.63;;;8.47;;
15831;SDS011;8016;49.928;9.372;2022-07-30T00:53:13;8.90;;;8.00;;
15831;SDS011;8016;49.928;9.372;2022-07-30T00:55:38;9.40;;;8.30;;
15831;SDS011;8016;49.928;9.372;2022-07-30T00:58:04;7.93;;;7.20;;
15831;SDS011;8016;49.928;9.372;2022-07-30T01:00:30;18.23;;;9.17;;
15831;SDS011;8016;49.928;9.372;2022-07-30T01:02:56;8.93;;;8.10;;
15831;SDS011;8016;49.928;9.372;2022-07-30T01:05:23;10.57;;;8.27;;
15831;SDS011;8016;49.928;9.372;2022-07-30T01:07:48;8.47;;;7.67;;
15831;SDS011;8016;49.928;9.372;2022-07-30T01:10:15;17.03;;;8.20;;
15831;SDS011;8016;49.928;9.372;2022-07-30T01:12:41;8.33;;;7.60;;
15831;SDS011;8016;49.928;9.372;2022-07-30T01:15:08;7.60;;;6.90;;
15831;SDS011;8016;49.928;9.372;2022-07-30T01:17:34;7.27;;;6.57;;
15831;SDS011;8016;49.928;9.372;2022-07-30T01:20:02;8.20;;;6.50;;
15831;SDS011;8016;49.928;9.372;2022-07-30T01:27:54;9.47;;;7.43;;
15831;SDS011;8016;49.928;9.372;2022-07-30T01:30:22;17.50;;;7.00;;
15831;SDS011;8016;49.928;9.372;2022-07-30T01:32:49;21.30;;;8.03;;
15831;SDS011;8016;49.928;9.372;2022-07-30T01:35:16;12.40;;;7.93;;
15831;SDS011;8016;49.928;9.372;2022-07-30T01:37:43;16.43;;;7.27;;
15831;SDS011;8016;49.928;9.372;2022-07-30T01:40:09;10.23;;;7.33;;
15831;SDS011;8016;49.928;9.372;2022-07-30T01:42:38;8.53;;;6.77;;
15831;SDS011;8016;49.928;9.372;2022-07-30T01:45:05;8.53;;;7.27;;
15831;SDS011;8016;49.928;9.372;2022-07-30T01:47:33;9.67;;;6.70;;
15831;SDS011;8016;49.928;9.372;2022-07-30T01:49:59;44.70;;;6.50;;
15831;SDS011;8016;49.928;9.372;2022-07-30T01:52:26;8.60;;;7.20;;
15831;SDS011;8016;49.928;9.372;2022-07-30T01:54:55;8.47;;;6.50;;
15831;SDS011;8016;49.928;9.372;2022-07-30T01:57:22;8.57;;;7.77;;
15831;SDS011;8016;49.928;9.372;2022-07-30T01:59:50;7.53;;;6.50;;
15831;SDS011;8016;49.928;9.372;2022-07-30T02:02:16;7.73;;;6.27;;
15831;SDS011;8016;49.928;9.372;2022-07-30T02:04:42;17.17;;;6.07;;
15831;SDS011;8016;49.928;9.372;2022-07-30T02:09:42;28.67;;;7.17;;
15831;SDS011;8016;49.928;9.372;2022-07-30T02:12:11;9.67;;;7.13;;
15831;SDS011;8016;49.928;9.372;2022-07-30T02:14:54;8.43;;;7.63;;
15831;SDS011;8016;49.928;9.372;2022-07-30T02:17:25;8.23;;;7.47;;
15831;SDS011;8016;49.928;9.372;2022-07-30T02:19:53;14.13;;;6.50;;
15831;SDS011;8016;49.928;9.372;2022-07-30T02:22:21;10.20;;;7.33;;
15831;SDS011;8016;49.928;9.372;2022-07-30T02:24:48;8.67;;;6.57;;
15831;SDS011;8016;49.928;9.372;2022-07-30T02:27:16;18.60;;;8.30;;
15831;SDS011;8016;49.928;9.372;2022-07-30T02:29:43;10.47;;;7.37;;
15831;SDS011;8016;49.928;9.372;2022-07-30T02:32:11;11.53;;;8.80;;
15831;SDS011;8016;49.928;9.372;2022-07-30T02:34:39;14.57;;;7.67;;
15831;SDS011;8016;49.928;9.372;2022-07-30T02:37:06;14.57;;;8.27;;
15831;SDS011;8016;49.928;9.372;2022-07-30T02:39:33;9.10;;;8.00;;
15831;SDS011;8016;49.928;9.372;2022-07-30T02:42:00;9.77;;;8.60;;
15831;SDS011;8016;49.928;9.372;2022-07-30T02:44:27;11.20;;;8.77;;
15831;SDS011;8016;49.928;9.372;2022-07-30T02:46:54;10.63;;;7.70;;
15831;SDS011;8016;49.928;9.372;2022-07-30T02:49:20;11.30;;;7.60;;
15831;SDS011;8016;49.928;9.372;2022-07-30T02:51:47;13.13;;;8.37;;
15831;SDS011;8016;49.928;9.372;2022-07-30T02:54:14;14.73;;;7.97;;
15831;SDS011;8016;49.928;9.372;2022-07-30T02:56:42;20.20;;;7.73;;
15831;SDS011;8016;49.928;9.372;2022-07-30T02:59:09;21.13;;;7.90;;
15831;SDS011;8016;49.928;9.372;2022-07-30T03:01:35;10.33;;;8.30;;
15831;SDS011;8016;49.928;9.372;2022-07-30T03:04:01;11.03;;;6.93;;
15831;SDS011;8016;49.928;9.372;2022-07-30T03:06:27;14.30;;;7.13;;
15831;SDS011;8016;49.928;9.372;2022-07-30T03:08:54;17.17;;;7.97;;
15831;SDS011;8016;49.928;9.372;2022-07-30T03:11:21;13.77;;;6.93;;
15831;SDS011;8016;49.928;9.372;2022-07-30T03:13:48;9.83;;;7.63;;
15831;SDS011;8016;49.928;9.372;2022-07-30T03:16:14;9.53;;;6.60;;
15831;SDS011;8016;49.928;9.372;2022-07-30T03:18:41;8.63;;;6.83;;
15831;SDS011;8016;49.928;9.372;2022-07-30T03:21:09;10.63;;;6.70;;
15831;SDS011;8016;49.928;9.372;2022-07-30T03:23:36;10.30;;;7.00;;
15831;SDS011;8016;49.928;9.372;2022-07-30T03:26:04;6.77;;;5.97;;
15831;SDS011;8016;49.928;9.372;2022-07-30T03:28:31;6.33;;;5.20;;
15831;SDS011;8016;49.928;9.372;2022-07-30T03:30:57;8.30;;;6.13;;
15831;SDS011;8016;49.928;9.372;2022-07-30T03:33:23;7.13;;;6.43;;
15831;SDS011;8016;49.928;9.372;2022-07-30T03:35:50;8.87;;;6.47;;
15831;SDS011;8016;49.928;9.372;2022-07-30T03:38:17;9.10;;;5.87;;
15831;SDS011;8016;49.928;9.372;2022-07-30T03:40:43;18.97;;;6.80;;
15831;SDS011;8016;49.928;9.372;2022-07-30T03:43:10;14.63;;;7.07;;
15831;SDS011;8016;49.928;9.372;2022-07-30T03:45:37;9.47;;;6.23;;
15831;SDS011;8016;49.928;9.372;2022-07-30T03:48:06;15.23;;;6.87;;
15831;SDS011;8016;49.928;9.372;2022-07-30T03:50:33;22.63;;;7.40;;
15831;SDS011;8016;49.928;9.372;2022-07-30T03:52:59;9.17;;;6.80;;
15831;SDS011;8016;49.928;9.372;2022-07-30T03:55:25;8.00;;;6.23;;
15831;SDS011;8016;49.928;9.372;2022-07-30T03:57:51;6.70;;;5.60;;
15831;SDS011;8016;49.928;9.372;2022-07-30T04:00:17;6.93;;;6.23;;
15831;SDS011;8016;49.928;9.372;2022-07-30T04:02:43;9.90;;;6.47;;
15831;SDS011;8016;49.928;9.372;2022-07-30T04:05:11;8.47;;;7.00;;
15831;SDS011;8016;49.928;9.372;2022-07-30T04:07:37;8.67;;;5.53;;
15831;SDS011;8016;49.928;9.372;2022-07-30T04:10:04;6.17;;;5.20;;
15831;SDS011;8016;49.928;9.372;2022-07-30T04:12:30;6.10;;;5.50;;
15831;SDS011;8016;49.928;9.372;2022-07-30T04:14:56;5.77;;;5.13;;
15831;SDS011;8016;49.928;9.372;2022-07-30T04:17:42;10.00;;;6.03;;
15831;SDS011;8016;49.928;9.372;2022-07-30T04:20:11;14.57;;;7.33;;
15831;SDS011;8016;49.928;9.372;2022-07-30T04:22:38;24.00;;;8.47;;
15831;SDS011;8016;49.928;9.372;2022-07-30T04:25:04;20.77;;;10.37;;
15831;SDS011;8016;49.928;9.372;2022-07-30T04:27:31;26.77;;;11.13;;
15831;SDS011;8016;49.928;9.372;2022-07-30T04:29:59;31.70;;;12.43;;
15831;SDS011;8016;49.928;9.372;2022-07-30T04:32:25;22.20;;;9.63;;
15831;SDS011;8016;49.928;9.372;2022-07-30T04:34:53;32.60;;;11.37;;
15831;SDS011;8016;49.928;9.372;2022-07-30T04:37:20;46.13;;;12.03;;
15831;SDS011;8016;49.928;9.372;2022-07-30T04:39:47;40.30;;;9.93;;
15831;SDS011;8016;49.928;9.372;2022-07-30T04:42:15;42.07;;;9.80;;
15831;SDS011;8016;49.928;9.372;2022-07-30T04:44:41;27.37;;;10.77;;
15831;SDS011;8016;49.928;9.372;2022-07-30T04:47:07;44.10;;;12.47;;
15831;SDS011;8016;49.928;9.372;2022-07-30T04:49:33;26.00;;;13.17;;
15831;SDS011;8016;49.928;9.372;2022-07-30T04:52:00;52.33;;;13.57;;
15831;SDS011;8016;49.928;9.372;2022-07-30T04:54:27;34.67;;;12.63;;
15831;SDS011;8016;49.928;9.372;2022-07-30T04:56:59;21.23;;;9.23;;
15831;SDS011;8016;49.928;9.372;2022-07-30T04:59:25;15.87;;;9.17;;
15831;SDS011;8016;49.928;9.372;2022-07-30T05:01:51;32.00;;;10.10;;
15831;SDS011;8016;49.928;9.372;2022-07-30T05:04:18;31.67;;;10.17;;
15831;SDS011;8016;49.928;9.372;2022-07-30T05:06:44;37.40;;;11.53;;
15831;SDS011;8016;49.928;9.372;2022-07-30T05:09:10;51.63;;;12.53;;
15831;SDS011;8016;49.928;9.372;2022-07-30T05:11:37;45.97;;;11.50;;
15831;SDS011;8016;49.928;9.372;2022-07-30T05:14:02;31.20;;;11.93;;
15831;SDS011;8016;49.928;9.372;2022-07-30T05:16:28;37.67;;;10.83;;
15831;SDS011;8016;49.928;9.372;2022-07-30T05:18:57;35.70;;;11.67;;
15831;SDS011;8016;49.928;9.372;2022-07-30T05:21:23;37.63;;;11.57;;
15831;SDS011;8016;49.928;9.372;2022-07-30T05:23:49;21.10;;;11.00;;
15831;SDS011;8016;49.928;9.372;2022-07-30T05:26:19;23.60;;;12.07;;
15831;SDS011;8016;49.928;9.372;2022-07-30T05:28:45;31.27;;;11.30;;
15831;SDS011;8016;49.928;9.372;2022-07-30T05:31:11;24.73;;;10.67;;
15831;SDS011;8016;49.928;9.372;2022-07-30T05:33:37;34.73;;;12.00;;
15831;SDS011;8016;49.928;9.372;2022-07-30T05:36:03;22.13;;;11.10;;
15831;SDS011;8016;49.928;9.372;2022-07-30T05:38:29;14.40;;;10.97;;
15831;SDS011;8016;49.928;9.372;2022-07-30T05:40:55;14.77;;;10.47;;
15831;SDS011;8016;49.928;9.372;2022-07-30T05:43:21;10.13;;;9.13;;
15831;SDS011;8016;49.928;9.372;2022-07-30T05:45:47;10.47;;;9.50;;
15831;SDS011;8016;49.928;9.372;2022-07-30T05:48:13;10.93;;;9.93;;
15831;SDS011;8016;49.928;9.372;2022-07-30T05:50:39;10.67;;;9.67;;
15831;SDS011;8016;49.928;9.372;2022-07-30T05:53:05;9.27;;;8.47;;
15831;SDS011;8016;49.928;9.372;2022-07-30T05:55:31;9.53;;;8.67;;
15831;SDS011;8016;49.928;9.372;2022-07-30T05:57:57;9.50;;;8.10;;
15831;SDS011;8016;49.928;9.372;2022-07-30T06:00:23;8.20;;;7.50;;
15831;SDS011;8016;49.928;9.372;2022-07-30T06:02:49;10.00;;;9.20;;
15831;SDS011;8016;49.928;9.372;2022-07-30T06:05:15;11.80;;;10.80;;
15831;SDS011;8016;49.928;9.372;2022-07-30T06:07:41;9.77;;;8.97;;
15831;SDS011;8016;49.928;9.372;2022-07-30T06:10:07;10.87;;;9.97;;
15831;SDS011;8016;49.928;9.372;2022-07-30T06:12:33;10.77;;;9.87;;
15831;SDS011;8016;49.928;9.372;2022-07-30T06:14:59;10.00;;;9.20;;
15831;SDS011;8016;49.928;9.372;2022-07-30T06:17:25;10.20;;;9.17;;
15831;SDS011;8016;49.928;9.372;2022-07-30T06:19:51;9.10;;;8.10;;
15831;SDS011;8016;49.928;9.372;2022-07-30T06:22:17;9.43;;;8.47;;
15831;SDS011;8016;49.928;9.372;2022-07-30T06:24:44;7.57;;;6.97;;
15831;SDS011;8016;49.928;9.372;2022-07-30T06:27:10;7.40;;;6.90;;
15831;SDS011;8016;49.928;9.372;2022-07-30T06:29:36;6.90;;;6.30;;
15831;SDS011;8016;49.928;9.372;2022-07-30T06:32:02;6.57;;;6.07;;
15831;SDS011;8016;49.928;9.372;2022-07-30T06:34:28;6.50;;;6.00;;
15831;SDS011;8016;49.928;9.372;2022-07-30T06:36:54;5.60;;;5.10;;
15831;SDS011;8016;49.928;9.372;2022-07-30T06:39:20;5.63;;;5.23;;
15831;SDS011;8016;49.928;9.372;2022-07-30T06:41:46;5.00;;;4.50;;
15831;SDS011;8016;49.928;9.372;2022-07-30T06:44:12;5.10;;;4.70;;
15831;SDS011;8016;49.928;9.372;2022-07-30T06:46:38;5.07;;;4.67;;
15831;SDS011;8016;49.928;9.372;2022-07-30T06:49:04;5.80;;;5.30;;
15831;SDS011;8016;49.928;9.372;2022-07-30T06:51:30;6.97;;;6.37;;
15831;SDS011;8016;49.928;9.372;2022-07-30T06:53:56;6.53;;;5.93;;
15831;SDS011;8016;49.928;9.372;2022-07-30T06:56:22;7.10;;;5.00;;
15831;SDS011;8016;49.928;9.372;2022-07-30T06:58:48;6.37;;;5.87;;
15831;SDS011;8016;49.928;9.372;2022-07-30T07:01:14;6.60;;;6.00;;
15831;SDS011;8016;49.928;9.372;2022-07-30T07:03:40;6.53;;;5.93;;
15831;SDS011;8016;49.928;9.372;2022-07-30T07:06:06;6.23;;;5.73;;
15831;SDS011;8016;49.928;9.372;2022-07-30T07:08:34;7.83;;;6.07;;
15831;SDS011;8016;49.928;9.372;2022-07-30T07:11:00;7.50;;;6.80;;
15831;SDS011;8016;49.928;9.372;2022-07-30T07:13:26;7.97;;;7.27;;
15831;SDS011;8016;49.928;9.372;2022-07-30T07:15:53;7.73;;;7.00;;
15831;SDS011;8016;49.928;9.372;2022-07-30T07:18:19;9.17;;;8.37;;
15831;SDS011;8016;49.928;9.372;2022-07-30T07:20:45;10.30;;;9.20;;
15831;SDS011;8016;49.928;9.372;2022-07-30T07:23:11;10.27;;;9.27;;
15831;SDS011;8016;49.928;9.372;2022-07-30T07:25:37;10.87;;;9.80;;
15831;SDS011;8016;49.928;9.372;2022-07-30T07:28:03;12.40;;;9.83;;
15831;SDS011;8016;49.928;9.372;2022-07-30T07:30:30;11.33;;;10.17;;
15831;SDS011;8016;49.928;9.372;2022-07-30T07:32:56;12.57;;;10.73;;
15831;SDS011;8016;49.928;9.372;2022-07-30T07:35:22;13.33;;;11.93;;
15831;SDS011;8016;49.928;9.372;2022-07-30T07:37:48;14.10;;;12.80;;
15831;SDS011;8016;49.928;9.372;2022-07-30T07:40:14;14.10;;;12.63;;
15831;SDS011;8016;49.928;9.372;2022-07-30T07:42:40;15.13;;;13.67;;
15831;SDS011;8016;49.928;9.372;2022-07-30T07:45:06;14.33;;;12.93;;
15831;SDS011;8016;49.928;9.372;2022-07-30T07:47:44;17.10;;;13.97;;
15831;SDS011;8016;49.928;9.372;2022-07-30T07:50:10;15.97;;;14.27;;
15831;SDS011;8016;49.928;9.372;2022-07-30T07:52:36;18.50;;;14.60;;
15831;SDS011;8016;49.928;9.372;2022-07-30T07:55:02;15.37;;;13.90;;
15831;SDS011;8016;49.928;9.372;2022-07-30T07:57:28;16.77;;;15.17;;
15831;SDS011;8016;49.928;9.372;2022-07-30T07:59:54;18.27;;;16.03;;
15831;SDS011;8016;49.928;9.372;2022-07-30T08:02:21;17.33;;;15.63;;
15831;SDS011;8016;49.928;9.372;2022-07-30T08:04:47;18.00;;;16.10;;
15831;SDS011;8016;49.928;9.372;2022-07-30T08:07:13;17.03;;;15.33;;
15831;SDS011;8016;49.928;9.372;2022-07-30T08:09:39;18.60;;;16.67;;
15831;SDS011;8016;49.928;9.372;2022-07-30T08:12:05;18.07;;;16.30;;
15831;SDS011;8016;49.928;9.372;2022-07-30T08:14:32;18.40;;;16.60;;
15831;SDS011;8016;49.928;9.372;2022-07-30T08:16:58;19.63;;;16.77;;
15831;SDS011;8016;49.928;9.372;2022-07-30T08:19:24;22.10;;;16.93;;
15831;SDS011;8016;49.928;9.372;2022-07-30T08:21:50;17.00;;;15.37;;
15831;SDS011;8016;49.928;9.372;2022-07-30T08:24:16;17.73;;;16.00;;
15831;SDS011;8016;49.928;9.372;2022-07-30T08:26:41;17.27;;;15.50;;
15831;SDS011;8016;49.928;9.372;2022-07-30T08:29:07;17.00;;;13.73;;
15831;SDS011;8016;49.928;9.372;2022-07-30T08:31:33;16.83;;;15.03;;
15831;SDS011;8016;49.928;9.372;2022-07-30T08:33:59;18.00;;;13.90;;
15831;SDS011;8016;49.928;9.372;2022-07-30T08:36:25;14.27;;;12.77;;
15831;SDS011;8016;49.928;9.372;2022-07-30T08:38:51;16.00;;;14.27;;
15831;SDS011;8016;49.928;9.372;2022-07-30T08:41:18;19.20;;;13.20;;
15831;SDS011;8016;49.928;9.372;2022-07-30T08:43:45;14.67;;;13.27;;
15831;SDS011;8016;49.928;9.372;2022-07-30T08:46:12;13.83;;;12.40;;
15831;SDS011;8016;49.928;9.372;2022-07-30T08:48:39;13.93;;;12.20;;
15831;SDS011;8016;49.928;9.372;2022-07-30T08:51:05;12.37;;;11.07;;
15831;SDS011;8016;49.928;9.372;2022-07-30T08:53:32;13.30;;;11.90;;
15831;SDS011;8016;49.928;9.372;2022-07-30T08:55:59;11.43;;;10.20;;
15831;SDS011;8016;49.928;9.372;2022-07-30T08:58:29;11.27;;;10.23;;
15831;SDS011;8016;49.928;9.372;2022-07-30T09:00:56;12.40;;;11.23;;
15831;SDS011;8016;49.928;9.372;2022-07-30T09:03:22;13.30;;;11.97;;
15831;SDS011;8016;49.928;9.372;2022-07-30T09:05:48;12.23;;;10.93;;
15831;SDS011;8016;49.928;9.372;2022-07-30T09:08:14;12.47;;;11.20;;
15831;SDS011;8016;49.928;9.372;2022-07-30T09:10:40;10.50;;;9.53;;
15831;SDS011;8016;49.928;9.372;2022-07-30T09:15:49;10.60;;;9.60;;
15831;SDS011;8016;49.928;9.372;2022-07-30T09:18:20;10.57;;;8.07;;
15831;SDS011;8016;49.928;9.372;2022-07-30T09:20:50;9.43;;;7.43;;
15831;SDS011;8016;49.928;9.372;2022-07-30T09:23:16;9.27;;;8.37;;
15831;SDS011;8016;49.928;9.372;2022-07-30T09:25:43;9.60;;;8.80;;
15831;SDS011;8016;49.928;9.372;2022-07-30T09:28:10;9.20;;;8.40;;
15831;SDS011;8016;49.928;9.372;2022-07-30T09:30:51;9.17;;;7.67;;
15831;SDS011;8016;49.928;9.372;2022-07-30T09:33:31;10.60;;;9.50;;
15831;SDS011;8016;49.928;9.372;2022-07-30T09:35:57;10.03;;;9.00;;
15831;SDS011;8016;49.928;9.372;2022-07-30T09:38:23;10.13;;;9.07;;
15831;SDS011;8016;49.928;9.372;2022-07-30T09:40:50;10.60;;;8.47;;
15831;SDS011;8016;49.928;9.372;2022-07-30T09:43:17;8.47;;;7.67;;
15831;SDS011;8016;49.928;9.372;2022-07-30T09:45:50;10.20;;;9.30;;
15831;SDS011;8016;49.928;9.372;2022-07-30T09:48:23;8.90;;;8.00;;
15831;SDS011;8016;49.928;9.372;2022-07-30T09:50:50;11.17;;;8.37;;
15831;SDS011;8016;49.928;9.372;2022-07-30T09:53:16;10.67;;;8.57;;
15831;SDS011;8016;49.928;9.372;2022-07-30T09:55:42;8.93;;;8.03;;
15831;SDS011;8016;49.928;9.372;2022-07-30T09:58:09;10.40;;;8.27;;
15831;SDS011;8016;49.928;9.372;2022-07-30T10:00:36;13.83;;;10.37;;
15831;SDS011;8016;49.928;9.372;2022-07-30T10:03:24;13.00;;;11.63;;
15831;SDS011;8016;49.928;9.372;2022-07-30T10:05:53;8.30;;;7.37;;
15831;SDS011;8016;49.928;9.372;2022-07-30T10:08:20;13.27;;;7.43;;
15831;SDS011;8016;49.928;9.372;2022-07-30T10:11:02;9.23;;;7.80;;
15831;SDS011;8016;49.928;9.372;2022-07-30T10:13:28;10.00;;;6.93;;
15831;SDS011;8016;49.928;9.372;2022-07-30T10:15:54;7.90;;;7.10;;
15831;SDS011;8016;49.928;9.372;2022-07-30T10:18:22;6.87;;;6.17;;
15831;SDS011;8016;49.928;9.372;2022-07-30T10:20:48;8.33;;;6.27;;
15831;SDS011;8016;49.928;9.372;2022-07-30T10:23:13;8.80;;;6.57;;
15831;SDS011;8016;49.928;9.372;2022-07-30T10:25:40;6.63;;;6.10;;
15831;SDS011;8016;49.928;9.372;2022-07-30T10:28:06;8.03;;;6.50;;
15831;SDS011;8016;49.928;9.372;2022-07-30T10:30:35;9.20;;;5.83;;
15831;SDS011;8016;49.928;9.372;2022-07-30T10:33:02;5.63;;;4.57;;
15831;SDS011;8016;49.928;9.372;2022-07-30T10:35:28;6.80;;;5.60;;
15831;SDS011;8016;49.928;9.372;2022-07-30T10:37:54;6.00;;;5.40;;
15831;SDS011;8016;49.928;9.372;2022-07-30T10:40:26;7.30;;;5.33;;
15831;SDS011;8016;49.928;9.372;2022-07-30T10:45:28;6.60;;;6.00;;
15831;SDS011;8016;49.928;9.372;2022-07-30T10:47:59;6.83;;;5.27;;
15831;SDS011;8016;49.928;9.372;2022-07-30T10:50:27;9.03;;;6.50;;
15831;SDS011;8016;49.928;9.372;2022-07-30T10:55:23;7.77;;;5.33;;
15831;SDS011;8016;49.928;9.372;2022-07-30T11:00:32;7.07;;;5.80;;
15831;SDS011;8016;49.928;9.372;2022-07-30T11:05:44;6.83;;;6.13;;
15831;SDS011;8016;49.928;9.372;2022-07-30T11:10:55;7.07;;;5.50;;
15831;SDS011;8016;49.928;9.372;2022-07-30T11:14:04;7.23;;;5.77;;
15831;SDS011;8016;49.928;9.372;2022-07-30T11:16:11;6.10;;;5.50;;
15831;SDS011;8016;49.928;9.372;2022-07-30T11:19:00;5.40;;;4.80;;
15831;SDS011;8016;49.928;9.372;2022-07-30T11:21:23;7.07;;;6.00;;
15831;SDS011;8016;49.928;9.372;2022-07-30T11:23:49;5.67;;;5.27;;
15831;SDS011;8016;49.928;9.372;2022-07-30T11:29:00;7.67;;;6.30;;
15831;SDS011;8016;49.928;9.372;2022-07-30T11:31:35;8.83;;;6.10;;
15831;SDS011;8016;49.928;9.372;2022-07-30T11:37:01;7.73;;;6.20;;
15831;SDS011;8016;49.928;9.372;2022-07-30T11:42:22;6.93;;;6.27;;
15831;SDS011;8016;49.928;9.372;2022-07-30T11:44:48;7.00;;;5.70;;
15831;SDS011;8016;49.928;9.372;2022-07-30T11:47:14;6.85;;;6.15;;
15831;SDS011;8016;49.928;9.372;2022-07-30T11:49:40;8.27;;;6.13;;
15831;SDS011;8016;49.928;9.372;2022-07-30T11:52:06;6.90;;;6.03;;
15831;SDS011;8016;49.928;9.372;2022-07-30T11:54:33;12.83;;;5.63;;
15831;SDS011;8016;49.928;9.372;2022-07-30T11:57:15;5.57;;;5.07;;
15831;SDS011;8016;49.928;9.372;2022-07-30T11:59:56;8.00;;;5.63;;
15831;SDS011;8016;49.928;9.372;2022-07-30T12:02:25;6.13;;;5.27;;
15831;SDS011;8016;49.928;9.372;2022-07-30T12:04:52;10.30;;;6.07;;
15831;SDS011;8016;49.928;9.372;2022-07-30T12:07:23;5.27;;;4.67;;
15831;SDS011;8016;49.928;9.372;2022-07-30T12:09:49;7.40;;;4.93;;
15831;SDS011;8016;49.928;9.372;2022-07-30T12:12:22;6.57;;;5.17;;
15831;SDS011;8016;49.928;9.372;2022-07-30T12:14:49;9.23;;;5.65;;
15831;SDS011;8016;49.928;9.372;2022-07-30T12:17:15;8.18;;;5.30;;
15831;SDS011;8016;49.928;9.372;2022-07-30T12:19:42;7.75;;;4.75;;
15831;SDS011;8016;49.928;9.372;2022-07-30T12:22:08;8.18;;;4.88;;
15831;SDS011;8016;49.928;9.372;2022-07-30T12:24:34;7.95;;;4.85;;
15831;SDS011;8016;49.928;9.372;2022-07-30T12:27:04;9.05;;;4.20;;
15831;SDS011;8016;49.928;9.372;2022-07-30T12:29:30;7.47;;;4.90;;
15831;SDS011;8016;49.928;9.372;2022-07-30T12:31:56;4.50;;;3.72;;
15831;SDS011;8016;49.928;9.372;2022-07-30T12:34:23;7.70;;;3.67;;
15831;SDS011;8016;49.928;9.372;2022-07-30T12:36:50;8.02;;;4.00;;
15831;SDS011;8016;49.928;9.372;2022-07-30T12:41:46;6.35;;;3.80;;
15831;SDS011;8016;49.928;9.372;2022-07-30T12:46:57;7.65;;;4.00;;
15831;SDS011;8016;49.928;9.372;2022-07-30T12:49:27;3.88;;;3.15;;
15831;SDS011;8016;49.928;9.372;2022-07-30T12:51:53;5.95;;;3.85;;
15831;SDS011;8016;49.928;9.372;2022-07-30T12:54:19;11.15;;;4.78;;
15831;SDS011;8016;49.928;9.372;2022-07-30T12:56:55;9.25;;;3.90;;
15831;SDS011;8016;49.928;9.372;2022-07-30T12:59:22;6.70;;;3.70;;
15831;SDS011;8016;49.928;9.372;2022-07-30T13:01:49;4.78;;;3.60;;
15831;SDS011;8016;49.928;9.372;2022-07-30T13:04:16;8.35;;;3.70;;
15831;SDS011;8016;49.928;9.372;2022-07-30T13:06:42;4.32;;;2.80;;
15831;SDS011;8016;49.928;9.372;2022-07-30T13:09:17;5.90;;;3.03;;
15831;SDS011;8016;49.928;9.372;2022-07-30T13:11:44;4.18;;;3.50;;
15831;SDS011;8016;49.928;9.372;2022-07-30T13:14:10;5.20;;;3.58;;
15831;SDS011;8016;49.928;9.372;2022-07-30T13:16:38;8.05;;;5.38;;
15831;SDS011;8016;49.928;9.372;2022-07-30T13:19:04;5.05;;;4.15;;
15831;SDS011;8016;49.928;9.372;2022-07-30T13:21:31;6.32;;;3.85;;
15831;SDS011;8016;49.928;9.372;2022-07-30T13:23:58;5.65;;;3.30;;
15831;SDS011;8016;49.928;9.372;2022-07-30T13:26:24;6.40;;;3.83;;
15831;SDS011;8016;49.928;9.372;2022-07-30T13:28:50;4.20;;;3.80;;
15831;SDS011;8016;49.928;9.372;2022-07-30T13:31:16;4.07;;;3.53;;
15831;SDS011;8016;49.928;9.372;2022-07-30T13:33:42;4.97;;;3.35;;
15831;SDS011;8016;49.928;9.372;2022-07-30T13:36:08;6.28;;;3.05;;
15831;SDS011;8016;49.928;9.372;2022-07-30T13:38:34;4.75;;;2.85;;
15831;SDS011;8016;49.928;9.372;2022-07-30T13:41:00;3.03;;;2.65;;
15831;SDS011;8016;49.928;9.372;2022-07-30T13:43:26;8.00;;;3.88;;
15831;SDS011;8016;49.928;9.372;2022-07-30T13:45:52;4.65;;;3.45;;
15831;SDS011;8016;49.928;9.372;2022-07-30T13:48:18;3.38;;;2.85;;
15831;SDS011;8016;49.928;9.372;2022-07-30T13:50:44;6.00;;;2.53;;
15831;SDS011;8016;49.928;9.372;2022-07-30T13:53:11;3.80;;;2.47;;
15831;SDS011;8016;49.928;9.372;2022-07-30T13:55:37;2.80;;;2.20;;
15831;SDS011;8016;49.928;9.372;2022-07-30T13:58:05;7.63;;;3.03;;
15831;SDS011;8016;49.928;9.372;2022-07-30T14:00:31;3.22;;;2.28;;
15831;SDS011;8016;49.928;9.372;2022-07-30T14:03:00;3.67;;;2.50;;
15831;SDS011;8016;49.928;9.372;2022-07-30T14:05:27;3.30;;;2.60;;
15831;SDS011;8016;49.928;9.372;2022-07-30T14:07:53;2.55;;;2.00;;
15831;SDS011;8016;49.928;9.372;2022-07-30T14:10:19;2.10;;;1.90;;
15831;SDS011;8016;49.928;9.372;2022-07-30T14:12:49;6.22;;;2.47;;
15831;SDS011;8016;49.928;9.372;2022-07-30T14:15:18;6.45;;;2.97;;
15831;SDS011;8016;49.928;9.372;2022-07-30T14:17:44;3.55;;;2.15;;
15831;SDS011;8016;49.928;9.372;2022-07-30T14:20:10;4.80;;;2.17;;
15831;SDS011;8016;49.928;9.372;2022-07-30T14:22:36;4.18;;;1.80;;
15831;SDS011;8016;49.928;9.372;2022-07-30T14:25:03;3.08;;;1.83;;
15831;SDS011;8016;49.928;9.372;2022-07-30T14:27:29;3.13;;;1.90;;
15831;SDS011;8016;49.928;9.372;2022-07-30T14:29:55;4.85;;;1.83;;
15831;SDS011;8016;49.928;9.372;2022-07-30T14:32:21;6.82;;;2.40;;
15831;SDS011;8016;49.928;9.372;2022-07-30T14:34:47;4.40;;;2.25;;
15831;SDS011;8016;49.928;9.372;2022-07-30T14:37:13;3.42;;;2.30;;
15831;SDS011;8016;49.928;9.372;2022-07-30T14:39:38;5.47;;;2.33;;
15831;SDS011;8016;49.928;9.372;2022-07-30T14:42:04;2.42;;;2.10;;
15831;SDS011;8016;49.928;9.372;2022-07-30T14:44:31;7.07;;;2.53;;
15831;SDS011;8016;49.928;9.372;2022-07-30T14:46:57;4.30;;;2.03;;
15831;SDS011;8016;49.928;9.372;2022-07-30T14:49:23;3.17;;;2.13;;
15831;SDS011;8016;49.928;9.372;2022-07-30T14:51:49;4.30;;;1.50;;
15831;SDS011;8016;49.928;9.372;2022-07-30T14:54:15;5.40;;;1.90;;
15831;SDS011;8016;49.928;9.372;2022-07-30T14:56:41;3.00;;;1.67;;
15831;SDS011;8016;49.928;9.372;2022-07-30T14:59:07;2.90;;;1.80;;
15831;SDS011;8016;49.928;9.372;2022-07-30T15:01:33;3.05;;;2.00;;
15831;SDS011;8016;49.928;9.372;2022-07-30T15:03:59;3.45;;;2.00;;
15831;SDS011;8016;49.928;9.372;2022-07-30T15:06:25;3.55;;;2.08;;
15831;SDS011;8016;49.928;9.372;2022-07-30T15:08:51;4.38;;;2.03;;
15831;SDS011;8016;49.928;9.372;2022-07-30T15:11:17;4.72;;;1.98;;
15831;SDS011;8016;49.928;9.372;2022-07-30T15:13:43;3.25;;;1.95;;
15831;SDS011;8016;49.928;9.372;2022-07-30T15:16:09;3.70;;;1.65;;
15831;SDS011;8016;49.928;9.372;2022-07-30T15:18:35;3.70;;;1.80;;
15831;SDS011;8016;49.928;9.372;2022-07-30T15:21:02;2.80;;;1.75;;
15831;SDS011;8016;49.928;9.372;2022-07-30T15:23:28;2.20;;;1.65;;
15831;SDS011;8016;49.928;9.372;2022-07-30T15:25:54;3.20;;;1.90;;
15831;SDS011;8016;49.928;9.372;2022-07-30T15:28:25;2.28;;;2.08;;
15831;SDS011;8016;49.928;9.372;2022-07-30T15:30:53;3.40;;;2.05;;